Time;durP1;ratioP1;P1;durP2;ratioP2;P2;SDS_P1;SDS_P2;PMS_P1;PMS_P2;Temp;Humidity;BMP_temperature;BMP_pressure;BME280_temperature;BME280_humidity;BME280_pressure;Samples;Min_cycle;Max_cycle;Signal;HPM_P1;HPM_P2
2022/10/28 00:00:30;;;;;;;10.10;5.03;;;20.40;78.20;;;;;;4941147;28;20205;-96
2022/10/28 00:03:03;;;;;;;17.77;7.10;;;20.40;78.30;;;;;;4937970;29;20211;-94
2022/10/28 00:05:34;;;;;;;11.47;5.67;;;20.40;78.80;;;;;;4937777;28;20235;-96
2022/10/28 00:08:01;;;;;;;10.97;4.60;;;20.40;78.70;;;;;;4936439;28;20254;-94
2022/10/28 00:10:29;;;;;;;12.43;5.23;;;20.40;78.40;;;;;;4938008;28;20232;-94
2022/10/28 00:12:56;;;;;;;16.67;6.57;;;20.40;78.40;;;;;;4935940;29;20239;-95
2022/10/28 00:15:26;;;;;;;11.10;4.97;;;20.40;78.40;;;;;;4929813;29;20216;-95
2022/10/28 00:17:57;;;;;;;12.33;5.43;;;20.40;78.50;;;;;;4936325;28;20208;-95
2022/10/28 00:20:27;;;;;;;7.83;4.43;;;20.40;78.50;;;;;;4938165;28;20283;-96
2022/10/28 00:22:58;;;;;;;12.27;5.53;;;20.40;78.80;;;;;;4935408;29;20595;-95
2022/10/28 00:25:30;;;;;;;11.13;5.30;;;20.40;78.60;;;;;;4938024;28;20247;-96
2022/10/28 00:27:59;;;;;;;13.20;5.37;;;20.40;78.80;;;;;;4922479;28;20213;-96
2022/10/28 00:30:31;;;;;;;17.17;6.30;;;20.40;78.50;;;;;;4937322;29;20226;-95
2022/10/28 00:33:03;;;;;;;11.60;4.63;;;20.40;78.60;;;;;;4938698;28;20209;-94
2022/10/28 00:35:39;;;;;;;14.50;4.87;;;20.40;78.70;;;;;;4938805;29;20212;-95
2022/10/28 00:38:10;;;;;;;8.23;4.63;;;20.40;78.80;;;;;;4938900;29;20218;-94
2022/10/28 00:40:42;;;;;;;11.67;5.13;;;20.40;78.80;;;;;;4932608;29;20217;-95
2022/10/28 00:43:14;;;;;;;9.60;5.07;;;20.40;78.90;;;;;;4936500;29;20274;-94
2022/10/28 00:45:42;;;;;;;12.63;4.57;;;20.40;78.80;;;;;;4959109;28;20199;-95
2022/10/28 00:48:14;;;;;;;12.77;5.37;;;20.40;78.60;;;;;;4955992;28;20200;-94
2022/10/28 00:50:50;;;;;;;7.97;4.27;;;20.40;78.80;;;;;;4939518;28;20763;-96
2022/10/28 00:53:24;;;;;;;18.53;6.33;;;20.40;79.00;;;;;;4942357;28;20204;-94
2022/10/28 00:55:58;;;;;;;10.53;4.50;;;20.40;78.80;;;;;;4937939;28;20197;-95
2022/10/28 00:58:28;;;;;;;14.73;5.97;;;20.40;78.80;;;;;;4927767;28;20209;-96
2022/10/28 01:00:55;;;;;;;11.90;4.57;;;20.40;78.60;;;;;;4937559;28;20258;-95
2022/10/28 01:03:25;;;;;;;16.27;5.53;;;20.40;78.50;;;;;;4940583;28;20215;-95
2022/10/28 01:06:02;;;;;;;11.70;4.77;;;20.40;78.70;;;;;;4937052;28;20200;-94
2022/10/28 01:08:31;;;;;;;10.97;4.00;;;20.40;78.80;;;;;;4934905;29;20274;-94
2022/10/28 01:11:24;;;;;;;13.40;5.97;;;20.40;78.60;;;;;;4930931;29;20233;-93
2022/10/28 01:14:20;;;;;;;12.17;5.57;;;20.40;79.00;;;;;;4925048;29;20631;-94
2022/10/28 01:17:09;;;;;;;11.23;4.40;;;20.40;78.90;;;;;;4933098;29;20232;-94
2022/10/28 01:20:15;;;;;;;13.60;4.70;;;20.40;78.70;;;;;;4935228;29;20729;-96
2022/10/28 01:22:55;;;;;;;14.47;5.40;;;20.40;78.90;;;;;;4931757;29;20208;-94
2022/10/28 01:25:59;;;;;;;10.70;4.50;;;20.40;78.60;;;;;;4933284;29;20215;-93
2022/10/28 01:28:54;;;;;;;13.13;5.43;;;20.40;79.00;;;;;;4930148;28;20200;-94
2022/10/28 01:31:37;;;;;;;8.93;4.73;;;20.40;79.00;;;;;;4935710;29;20314;-94
2022/10/28 01:34:17;;;;;;;11.93;4.50;;;20.40;79.00;;;;;;4934436;28;20236;-94
2022/10/28 01:36:56;;;;;;;12.97;4.40;;;20.40;78.80;;;;;;4925087;28;20304;-94
2022/10/28 01:39:33;;;;;;;11.13;5.13;;;20.40;78.80;;;;;;4933234;29;20221;-95
2022/10/28 01:42:12;;;;;;;11.17;3.80;;;20.40;78.80;;;;;;4932388;28;20274;-94
2022/10/28 01:44:49;;;;;;;13.37;5.27;;;20.40;78.80;;;;;;4933100;28;20200;-95
2022/10/28 01:47:26;;;;;;;20.17;7.13;;;20.40;78.90;;;;;;4934379;28;21526;-94
2022/10/28 01:50:00;;;;;;;14.07;4.50;;;20.40;78.90;;;;;;4999347;28;20224;-94
2022/10/28 01:52:30;;;;;;;12.07;5.53;;;20.40;78.90;;;;;;4935377;28;20218;-94
2022/10/28 01:55:06;;;;;;;13.83;4.77;;;20.40;78.80;;;;;;4935486;28;20638;-94
2022/10/28 01:57:38;;;;;;;15.03;5.27;;;20.40;78.80;;;;;;4936436;29;20212;-94
2022/10/28 02:00:09;;;;;;;8.43;4.20;;;20.40;78.70;;;;;;4935494;29;20309;-94
2022/10/28 02:02:41;;;;;;;12.47;4.83;;;20.40;78.60;;;;;;4935261;29;20224;-94
2022/10/28 02:05:43;;;;;;;14.17;5.13;;;20.40;78.70;;;;;;4936323;28;20270;-95
2022/10/28 02:08:55;;;;;;;14.50;5.63;;;20.40;78.90;;;;;;4932424;28;20642;-96
2022/10/28 02:11:48;;;;;;;13.83;4.63;;;20.40;79.10;;;;;;4935473;29;20290;-95
2022/10/28 02:14:28;;;;;;;14.93;4.60;;;20.40;78.90;;;;;;4930237;29;20658;-94
2022/10/28 02:17:03;;;;;;;10.40;4.63;;;20.40;78.80;;;;;;4933378;29;20212;-94
2022/10/28 02:19:47;;;;;;;11.57;5.23;;;20.30;78.70;;;;;;4934168;29;20212;-93
2022/10/28 02:22:25;;;;;;;13.57;5.53;;;20.40;79.00;;;;;;4917609;29;20680;-94
2022/10/28 02:25:05;;;;;;;12.50;4.93;;;20.40;78.90;;;;;;4926934;29;20230;-94
2022/10/28 02:27:43;;;;;;;11.30;5.53;;;20.30;79.00;;;;;;4931035;29;20232;-93
2022/10/28 02:30:15;;;;;;;13.70;5.37;;;20.30;78.70;;;;;;4923968;29;20266;-94
2022/10/28 02:32:49;;;;;;;12.37;5.23;;;20.30;79.50;;;;;;4936215;29;20201;-95
2022/10/28 02:35:26;;;;;;;11.83;5.17;;;20.30;78.80;;;;;;4935657;28;20208;-95
2022/10/28 02:37:57;;;;;;;12.73;5.40;;;20.30;78.90;;;;;;4935757;28;20290;-94
2022/10/28 02:40:27;;;;;;;14.80;5.73;;;20.30;78.70;;;;;;4936113;29;20216;-95
2022/10/28 02:43:01;;;;;;;18.57;6.77;;;20.30;78.90;;;;;;4944165;29;20205;-95
2022/10/28 02:45:35;;;;;;;11.23;5.03;;;20.30;78.90;;;;;;5015221;28;20203;-93
2022/10/28 02:48:08;;;;;;;11.77;5.47;;;20.30;78.90;;;;;;4924610;28;20212;-94
2022/10/28 02:50:43;;;;;;;13.13;5.53;;;20.30;78.80;;;;;;4935293;28;20260;-95
2022/10/28 02:53:21;;;;;;;11.33;5.20;;;20.20;78.80;;;;;;4936669;28;20245;-94
2022/10/28 02:55:57;;;;;;;11.47;4.97;;;20.20;78.70;;;;;;4937959;29;20219;-95
2022/10/28 02:58:26;;;;;;;9.40;4.17;;;20.20;78.60;;;;;;4939148;28;20521;-95
2022/10/28 03:00:58;;;;;;;10.47;5.13;;;20.20;78.30;;;;;;4937907;28;21131;-94
2022/10/28 03:03:25;;;;;;;10.67;5.50;;;20.20;78.30;;;;;;4938347;28;20216;-94
2022/10/28 03:05:56;;;;;;;15.17;5.97;;;20.20;78.40;;;;;;4932358;28;20653;-93
2022/10/28 03:08:27;;;;;;;9.70;5.17;;;20.20;78.60;;;;;;4939474;29;20711;-95
2022/10/28 03:10:57;;;;;;;11.33;5.63;;;20.20;78.50;;;;;;4936770;28;20947;-95
2022/10/28 03:13:29;;;;;;;15.43;5.70;;;20.20;78.40;;;;;;4938967;28;20224;-95
2022/10/28 03:15:58;;;;;;;9.43;4.70;;;20.10;78.30;;;;;;4932368;28;20851;-93
2022/10/28 03:18:28;;;;;;;12.03;4.77;;;20.10;78.60;;;;;;4937984;29;20215;-94
2022/10/28 03:21:04;;;;;;;16.00;5.50;;;20.10;78.60;;;;;;4937668;28;20208;-94
2022/10/28 03:23:31;;;;;;;10.93;4.80;;;20.10;78.70;;;;;;4937429;29;20730;-95
2022/10/28 03:25:59;;;;;;;10.13;4.80;;;20.10;78.80;;;;;;4939049;28;20617;-95
2022/10/28 03:28:28;;;;;;;14.90;5.73;;;20.00;78.70;;;;;;4936664;28;20205;-94
2022/10/28 03:30:57;;;;;;;10.97;4.73;;;20.00;79.00;;;;;;4936474;28;20231;-95
2022/10/28 03:33:25;;;;;;;16.27;6.50;;;20.00;79.20;;;;;;4935596;29;20212;-95
2022/10/28 03:35:52;;;;;;;11.53;5.20;;;19.90;79.10;;;;;;4937939;28;20200;-93
2022/10/28 03:38:21;;;;;;;13.70;5.83;;;20.00;79.30;;;;;;4942332;28;20607;-94
2022/10/28 03:40:54;;;;;;;10.67;4.37;;;20.00;79.50;;;;;;4941820;29;20215;-93
2022/10/28 03:43:24;;;;;;;9.80;5.73;;;19.90;79.50;;;;;;4933869;29;20872;-94
2022/10/28 03:45:51;;;;;;;19.07;6.03;;;19.90;79.30;;;;;;4937465;29;20204;-93
2022/10/28 03:48:21;;;;;;;10.60;4.90;;;19.90;79.40;;;;;;4922198;28;20241;-93
2022/10/28 03:50:53;;;;;;;10.63;5.03;;;19.90;79.40;;;;;;4937588;29;20247;-94
2022/10/28 03:53:24;;;;;;;14.97;5.40;;;19.90;79.60;;;;;;4940603;29;20963;-93
2022/10/28 03:55:52;;;;;;;15.57;6.27;;;19.80;79.50;;;;;;4936754;28;20207;-93
2022/10/28 03:58:20;;;;;;;12.17;5.67;;;19.80;79.50;;;;;;4938856;29;20207;-92
2022/10/28 04:00:49;;;;;;;12.83;5.43;;;19.80;79.60;;;;;;4940465;29;20216;-93
2022/10/28 04:03:16;;;;;;;12.07;5.03;;;19.80;80.00;;;;;;4934195;28;20303;-94
2022/10/28 04:05:47;;;;;;;11.03;6.07;;;19.80;79.80;;;;;;4932412;28;20743;-96
2022/10/28 04:08:16;;;;;;;13.93;5.87;;;19.70;79.90;;;;;;4931503;28;20299;-95
2022/10/28 04:10:45;;;;;;;12.87;5.03;;;19.70;80.10;;;;;;4926315;28;20232;-94
2022/10/28 04:13:12;;;;;;;11.53;5.53;;;19.70;80.10;;;;;;4932380;28;20244;-95
2022/10/28 04:15:40;;;;;;;12.23;5.63;;;19.70;80.00;;;;;;4931444;28;20200;-95
2022/10/28 04:18:07;;;;;;;13.93;5.43;;;19.70;80.10;;;;;;4932710;29;20216;-92
2022/10/28 04:20:40;;;;;;;15.27;5.17;;;19.70;80.10;;;;;;4919491;28;20296;-93
2022/10/28 04:23:08;;;;;;;15.63;6.13;;;19.70;80.30;;;;;;4914537;29;20216;-94
2022/10/28 04:25:38;;;;;;;14.63;5.33;;;19.70;80.30;;;;;;4929131;29;20748;-95
2022/10/28 04:28:09;;;;;;;8.97;4.37;;;19.70;80.20;;;;;;4934448;29;20204;-94
2022/10/28 04:30:36;;;;;;;12.97;5.97;;;19.60;80.10;;;;;;4919781;28;20205;-94
2022/10/28 04:33:04;;;;;;;12.33;5.63;;;19.70;79.80;;;;;;4938116;28;20208;-96
2022/10/28 04:35:31;;;;;;;13.20;4.80;;;19.60;79.60;;;;;;4933471;28;20256;-94
2022/10/28 04:38:00;;;;;;;8.97;4.67;;;19.60;79.50;;;;;;4931962;29;20294;-93
2022/10/28 04:40:29;;;;;;;15.50;5.87;;;19.60;79.60;;;;;;4932834;29;20243;-94
2022/10/28 04:42:58;;;;;;;11.30;5.10;;;19.60;79.50;;;;;;4933989;29;20215;-95
2022/10/28 04:45:29;;;;;;;12.47;5.17;;;19.60;79.50;;;;;;4932524;29;20204;-95
2022/10/28 04:47:58;;;;;;;10.60;4.73;;;19.60;79.50;;;;;;4934408;29;20210;-95
2022/10/28 04:50:27;;;;;;;12.43;5.07;;;19.50;79.40;;;;;;4935876;28;20294;-96
2022/10/28 04:52:56;;;;;;;9.53;4.67;;;19.60;79.30;;;;;;4934760;29;20203;-95
2022/10/28 04:55:23;;;;;;;13.27;5.73;;;19.50;79.30;;;;;;4925748;28;20245;-94
2022/10/28 04:57:59;;;;;;;14.17;5.67;;;19.50;79.30;;;;;;4931140;29;20223;-95
2022/10/28 05:00:29;;;;;;;11.63;5.80;;;19.50;79.80;;;;;;4932659;28;20286;-95
2022/10/28 05:02:56;;;;;;;14.00;5.50;;;19.40;79.40;;;;;;4934238;28;20324;-94
2022/10/28 05:05:26;;;;;;;9.77;4.73;;;19.40;79.40;;;;;;4933281;29;20231;-94
2022/10/28 05:07:55;;;;;;;15.67;4.83;;;19.40;79.50;;;;;;4938011;29;20265;-95
2022/10/28 05:10:22;;;;;;;13.17;6.03;;;19.40;79.40;;;;;;4937928;28;20341;-95
2022/10/28 05:12:50;;;;;;;13.70;5.50;;;19.40;79.30;;;;;;4941304;28;20232;-95
2022/10/28 05:15:17;;;;;;;14.37;4.70;;;19.30;79.30;;;;;;4936656;28;20576;-93
2022/10/28 05:17:48;;;;;;;11.33;4.40;;;19.30;79.40;;;;;;4935092;28;20211;-95
2022/10/28 05:20:19;;;;;;;13.07;5.40;;;19.30;79.60;;;;;;4933986;28;20661;-95
2022/10/28 05:22:48;;;;;;;13.80;4.93;;;19.20;79.60;;;;;;4932962;28;20243;-95
2022/10/28 05:25:17;;;;;;;10.03;4.63;;;19.20;79.70;;;;;;4935686;28;20211;-94
2022/10/28 05:27:44;;;;;;;8.40;3.50;;;19.20;79.70;;;;;;4935673;28;20304;-94
2022/10/28 05:30:13;;;;;;;14.17;5.17;;;19.20;79.60;;;;;;4948549;28;20213;-96
2022/10/28 05:32:40;;;;;;;11.87;5.13;;;19.20;79.80;;;;;;4943175;28;20231;-94
2022/10/28 05:35:10;;;;;;;9.90;4.97;;;19.10;79.60;;;;;;4933671;29;20227;-95
2022/10/28 05:37:40;;;;;;;10.13;5.20;;;19.10;80.90;;;;;;4935030;28;20200;-94
2022/10/28 05:40:08;;;;;;;12.53;4.80;;;19.10;80.10;;;;;;4924878;29;20249;-95
2022/10/28 05:42:41;;;;;;;14.33;5.53;;;19.10;80.40;;;;;;4935790;28;20232;-95
2022/10/28 05:45:09;;;;;;;12.07;4.53;;;19.10;81.00;;;;;;4936823;29;20346;-94
2022/10/28 05:47:37;;;;;;;12.83;4.90;;;19.00;80.80;;;;;;4934463;28;20216;-95
2022/10/28 05:50:13;;;;;;;15.33;5.70;;;19.00;80.90;;;;;;4935991;28;20207;-96
2022/10/28 05:52:46;;;;;;;12.13;4.50;;;19.00;81.60;;;;;;5004687;28;20222;-96
2022/10/28 05:55:30;;;;;;;13.60;5.53;;;19.00;81.60;;;;;;4947247;28;20238;-95
2022/10/28 05:57:57;;;;;;;11.53;4.93;;;19.00;82.00;;;;;;4935255;28;20238;-95
2022/10/28 06:00:26;;;;;;;14.73;5.57;;;19.00;81.60;;;;;;4945196;29;20227;-95
2022/10/28 06:02:53;;;;;;;15.67;5.53;;;19.00;82.00;;;;;;4948966;29;20208;-96
2022/10/28 06:05:26;;;;;;;15.20;5.77;;;19.00;82.00;;;;;;4932940;29;20215;-96
2022/10/28 06:07:55;;;;;;;12.33;5.07;;;19.00;82.50;;;;;;4935477;28;20247;-95
2022/10/28 06:10:23;;;;;;;12.00;5.33;;;19.00;82.20;;;;;;4937775;29;20242;-95
2022/10/28 06:12:50;;;;;;;12.30;5.03;;;19.00;82.40;;;;;;4935091;28;20243;-93
2022/10/28 06:15:18;;;;;;;11.63;5.13;;;19.10;82.50;;;;;;4933736;29;20741;-93
2022/10/28 06:17:51;;;;;;;12.67;5.20;;;19.00;82.40;;;;;;4936298;28;20211;-95
2022/10/28 06:20:19;;;;;;;7.77;3.67;;;19.00;82.80;;;;;;4937000;29;20273;-94
2022/10/28 06:22:51;;;;;;;14.17;6.00;;;19.00;82.60;;;;;;4958804;28;20207;-94
2022/10/28 06:25:20;;;;;;;9.20;4.93;;;19.00;82.80;;;;;;4992082;28;20208;-95
2022/10/28 06:27:53;;;;;;;16.73;5.57;;;19.10;82.60;;;;;;4938676;28;20285;-95
2022/10/28 06:30:28;;;;;;;10.30;4.47;;;19.10;82.50;;;;;;4934937;29;20727;-94
2022/10/28 06:33:00;;;;;;;12.43;5.40;;;19.10;82.60;;;;;;4939742;29;20220;-94
2022/10/28 06:35:35;;;;;;;16.20;5.70;;;19.10;82.60;;;;;;4938019;28;20204;-94
2022/10/28 06:38:08;;;;;;;18.27;5.97;;;19.10;82.60;;;;;;4937576;28;20238;-95
2022/10/28 06:40:36;;;;;;;13.23;4.67;;;19.10;82.50;;;;;;4939165;28;20216;-94
2022/10/28 06:43:06;;;;;;;14.27;5.67;;;19.10;82.40;;;;;;4932989;28;20234;-95
2022/10/28 06:45:34;;;;;;;18.63;6.90;;;19.10;82.40;;;;;;4940208;28;20228;-93
2022/10/28 06:48:06;;;;;;;13.77;4.83;;;19.20;82.60;;;;;;4938688;28;20713;-94
2022/10/28 06:50:39;;;;;;;10.40;4.77;;;19.20;82.50;;;;;;4941094;28;20196;-93
2022/10/28 06:53:11;;;;;;;15.43;4.93;;;19.20;82.50;;;;;;4937145;28;20333;-94
2022/10/28 06:55:47;;;;;;;12.80;5.27;;;19.20;82.40;;;;;;4930378;29;20278;-94
2022/10/28 06:58:15;;;;;;;13.73;5.03;;;19.20;82.40;;;;;;4952941;28;20656;-92
2022/10/28 07:00:42;;;;;;;14.83;5.53;;;19.20;82.30;;;;;;4936002;29;20296;-93
2022/10/28 07:03:10;;;;;;;10.63;5.23;;;19.20;82.30;;;;;;4933822;28;20205;-94
2022/10/28 07:05:38;;;;;;;13.27;5.33;;;19.30;82.50;;;;;;4926920;29;20295;-92
2022/10/28 07:08:06;;;;;;;10.93;4.20;;;19.30;82.40;;;;;;4929170;28;20563;-94
2022/10/28 07:10:37;;;;;;;14.73;5.63;;;19.30;82.50;;;;;;4937389;29;20288;-94
2022/10/28 07:13:05;;;;;;;13.00;5.03;;;19.30;82.60;;;;;;4931106;28;20290;-93
2022/10/28 07:15:32;;;;;;;15.83;6.00;;;19.30;82.50;;;;;;4936731;28;20203;-92
2022/10/28 07:18:01;;;;;;;10.20;4.27;;;19.30;82.30;;;;;;4931106;28;20204;-90
2022/10/28 07:20:31;;;;;;;10.77;4.60;;;19.30;82.50;;;;;;4938810;28;20238;-92
2022/10/28 07:23:02;;;;;;;8.13;4.37;;;19.40;82.50;;;;;;4935784;28;20209;-93
2022/10/28 07:25:31;;;;;;;11.30;5.17;;;19.40;82.50;;;;;;4940962;28;20228;-93
2022/10/28 07:28:08;;;;;;;12.03;4.33;;;19.40;82.50;;;;;;4943395;28;20353;-94
2022/10/28 07:30:38;;;;;;;12.87;5.30;;;19.40;82.60;;;;;;4933632;29;20204;-92
2022/10/28 07:33:06;;;;;;;11.13;4.33;;;19.40;83.50;;;;;;5004412;28;20235;-92
2022/10/28 07:35:34;;;;;;;17.20;6.40;;;19.50;82.70;;;;;;4936503;28;21376;-92
2022/10/28 07:38:02;;;;;;;9.80;3.70;;;19.50;82.80;;;;;;4939188;29;20208;-91
2022/10/28 07:40:42;;;;;;;16.77;6.47;;;19.50;82.80;;;;;;4940976;28;20302;-92
2022/10/28 07:43:11;;;;;;;15.23;5.77;;;19.50;82.70;;;;;;4934084;28;20208;-91
2022/10/28 07:45:41;;;;;;;18.87;6.43;;;19.60;83.00;;;;;;4937023;28;20760;-92
2022/10/28 07:48:09;;;;;;;14.13;5.33;;;19.60;83.10;;;;;;4926231;28;21099;-91
2022/10/28 07:50:36;;;;;;;11.20;5.33;;;19.60;82.90;;;;;;4936070;29;20193;-91
2022/10/28 07:53:05;;;;;;;14.43;5.87;;;19.60;82.80;;;;;;4934210;28;20227;-93
2022/10/28 07:55:32;;;;;;;15.57;5.83;;;19.60;83.00;;;;;;4928250;28;20693;-92
2022/10/28 07:58:01;;;;;;;15.63;5.00;;;19.70;82.90;;;;;;4932511;29;20223;-92
2022/10/28 08:00:30;;;;;;;12.67;5.43;;;19.70;82.90;;;;;;4999592;28;20294;-92
2022/10/28 08:02:59;;;;;;;19.07;4.63;;;19.70;82.90;;;;;;4931429;28;20303;-91
2022/10/28 08:05:27;;;;;;;15.10;5.50;;;19.70;82.90;;;;;;4934375;28;21083;-92
2022/10/28 08:07:56;;;;;;;9.83;4.10;;;19.80;82.90;;;;;;4936466;28;20228;-95
2022/10/28 08:10:23;;;;;;;14.73;4.97;;;19.90;82.80;;;;;;4938326;28;20216;-92
2022/10/28 08:12:59;;;;;;;11.20;4.80;;;19.90;83.00;;;;;;4932023;29;20228;-92
2022/10/28 08:15:27;;;;;;;12.50;5.23;;;19.90;83.00;;;;;;4935165;28;20204;-94
2022/10/28 08:17:56;;;;;;;11.27;4.67;;;20.00;82.90;;;;;;4914590;28;20228;-92
2022/10/28 08:20:26;;;;;;;13.67;5.33;;;20.00;83.40;;;;;;4928961;29;20212;-91
2022/10/28 08:22:55;;;;;;;15.80;5.10;;;20.00;83.30;;;;;;4933999;29;20216;-95
2022/10/28 08:25:25;;;;;;;15.23;5.67;;;20.10;84.20;;;;;;4936717;29;20212;-94
2022/10/28 08:28:04;;;;;;;7.00;3.57;;;20.10;83.40;;;;;;4940115;29;20274;-93
2022/10/28 08:30:32;;;;;;;11.87;5.17;;;20.20;83.10;;;;;;4939034;29;20216;-92
2022/10/28 08:33:02;;;;;;;14.20;4.73;;;20.10;83.00;;;;;;4936317;28;20220;-92
2022/10/28 08:35:30;;;;;;;12.70;5.13;;;20.20;83.00;;;;;;4935306;28;20208;-94
2022/10/28 08:37:57;;;;;;;11.40;4.73;;;20.30;83.20;;;;;;4931882;29;20216;-94
2022/10/28 08:40:34;;;;;;;11.27;5.50;;;20.30;83.00;;;;;;4929464;29;20251;-93
2022/10/28 08:43:07;;;;;;;12.20;5.53;;;20.40;83.10;;;;;;4933646;29;20451;-92
2022/10/28 08:45:43;;;;;;;11.97;5.03;;;20.50;82.90;;;;;;4922756;28;20311;-94
2022/10/28 08:48:22;;;;;;;12.37;5.40;;;20.60;82.70;;;;;;5012649;28;20205;-94
2022/10/28 08:50:56;;;;;;;14.77;4.83;;;20.70;82.20;;;;;;4938332;28;20215;-94
2022/10/28 08:53:28;;;;;;;12.90;4.67;;;20.70;82.00;;;;;;4934436;28;20231;-95
2022/10/28 08:56:08;;;;;;;14.70;5.53;;;20.80;81.60;;;;;;4935479;28;20540;-95
2022/10/28 08:58:59;;;;;;;14.30;6.20;;;20.90;81.60;;;;;;4932208;28;20271;-93
2022/10/28 09:01:37;;;;;;;16.83;6.73;;;21.00;81.50;;;;;;4934058;28;20232;-94
2022/10/28 09:04:12;;;;;;;14.83;5.47;;;21.10;81.10;;;;;;4924444;29;20215;-94
2022/10/28 09:06:41;;;;;;;13.37;4.70;;;21.20;81.10;;;;;;4939193;28;20196;-93
2022/10/28 09:09:18;;;;;;;9.90;4.63;;;21.30;80.70;;;;;;4950518;28;20675;-92
2022/10/28 09:12:05;;;;;;;11.00;4.83;;;21.30;80.80;;;;;;4949276;28;20224;-93
2022/10/28 09:14:57;;;;;;;13.40;5.17;;;21.50;80.50;;;;;;4942638;28;20205;-94
2022/10/28 09:17:35;;;;;;;18.63;6.23;;;21.60;80.00;;;;;;4925666;28;20210;-94
2022/10/28 09:20:15;;;;;;;15.13;4.30;;;21.70;79.40;;;;;;5004529;28;20204;-92
2022/10/28 09:22:55;;;;;;;14.87;5.13;;;21.80;79.00;;;;;;4936601;28;20295;-93
2022/10/28 09:25:33;;;;;;;14.73;4.83;;;21.90;77.90;;;;;;5003063;28;20296;-93
2022/10/28 09:28:21;;;;;;;11.50;5.13;;;22.10;77.40;;;;;;4936503;28;20208;-94
2022/10/28 09:31:00;;;;;;;12.30;4.73;;;22.10;77.10;;;;;;4937214;28;20568;-93
2022/10/28 09:33:47;;;;;;;10.70;4.83;;;22.20;76.00;;;;;;4937987;28;20258;-92
2022/10/28 09:36:22;;;;;;;16.50;5.53;;;22.30;75.70;;;;;;4935516;28;20221;-92
2022/10/28 09:38:55;;;;;;;11.87;4.07;;;22.40;75.80;;;;;;4937178;29;20640;-92
2022/10/28 09:41:29;;;;;;;11.73;4.43;;;22.50;75.10;;;;;;4927294;29;20227;-93
2022/10/28 09:44:04;;;;;;;12.77;5.37;;;22.50;75.20;;;;;;4933557;29;20205;-95
2022/10/28 09:46:36;;;;;;;12.77;4.70;;;22.60;74.70;;;;;;4942202;28;20312;-92
2022/10/28 09:49:05;;;;;;;12.17;5.23;;;22.70;75.00;;;;;;4955180;28;20707;-93
2022/10/28 09:51:48;;;;;;;11.93;4.87;;;22.70;74.20;;;;;;4940576;28;20761;-91
2022/10/28 09:54:22;;;;;;;19.13;7.20;;;22.80;74.00;;;;;;4938283;28;20714;-93
2022/10/28 09:56:54;;;;;;;12.10;4.20;;;22.90;73.40;;;;;;4941464;28;20223;-94
2022/10/28 09:59:36;;;;;;;11.87;4.43;;;22.90;73.80;;;;;;4926307;28;20212;-95
2022/10/28 10:02:24;;;;;;;10.67;4.47;;;23.00;73.70;;;;;;4926631;29;20215;-94
2022/10/28 10:04:52;;;;;;;10.77;4.40;;;23.10;73.90;;;;;;4930340;29;20210;-94
2022/10/28 10:07:34;;;;;;;11.23;4.27;;;23.10;72.90;;;;;;4934449;29;20220;-92
2022/10/28 10:10:13;;;;;;;12.13;4.73;;;23.20;72.40;;;;;;4939114;28;20238;-93
2022/10/28 10:12:44;;;;;;;10.60;4.80;;;23.20;72.40;;;;;;4940600;28;20234;-93
2022/10/28 10:18:41;;;;;;;;;;;;;;;;;;;;;
2022/10/28 10:21:20;;;;;;;9.20;4.33;;;23.40;72.30;;;;;;4917563;28;20299;-95
2022/10/28 10:24:19;;;;;;;12.13;4.87;;;23.40;72.00;;;;;;4928410;28;20231;-94
2022/10/28 10:26:51;;;;;;;14.13;5.17;;;23.50;71.70;;;;;;4932887;28;20620;-93
2022/10/28 10:32:35;;;;;;;12.30;5.20;;;23.50;71.90;;;;;;4923286;28;20208;-95
2022/10/28 10:35:19;;;;;;;13.80;4.97;;;23.50;71.90;;;;;;4925475;28;20552;-94
2022/10/28 10:37:51;;;;;;;7.67;4.00;;;23.60;71.10;;;;;;4931317;29;20302;-91
2022/10/28 10:40:22;;;;;;;13.63;4.90;;;23.60;71.80;;;;;;4931170;28;20247;-91
2022/10/28 10:42:55;;;;;;;16.63;5.67;;;23.70;72.00;;;;;;4931631;29;20216;-91
2022/10/28 10:45:32;;;;;;;20.47;4.93;;;23.70;71.70;;;;;;4928784;29;20219;-92
2022/10/28 10:48:14;;;;;;;10.30;4.67;;;23.80;71.80;;;;;;4933232;28;20211;-92
2022/10/28 10:50:48;;;;;;;9.53;3.97;;;23.80;71.70;;;;;;4937578;28;20212;-93
2022/10/28 10:53:27;;;;;;;15.10;5.67;;;23.90;71.40;;;;;;4932330;29;20228;-91
2022/10/28 10:55:59;;;;;;;12.13;4.10;;;24.10;71.60;;;;;;4925377;28;20210;-92
2022/10/28 10:58:37;;;;;;;12.93;5.23;;;24.10;71.60;;;;;;4918380;28;20229;-93
2022/10/28 11:01:19;;;;;;;11.00;3.93;;;24.20;70.80;;;;;;4934207;28;20228;-92
2022/10/28 11:03:54;;;;;;;12.80;5.40;;;24.30;70.40;;;;;;4930160;28;20214;-93
2022/10/28 11:07:15;;;;;;;;;;;;;;;;;;;;;
2022/10/28 11:09:42;;;;;;;10.93;4.93;;;24.50;69.70;;;;;;4936759;29;20219;-93
2022/10/28 11:12:27;;;;;;;12.70;5.20;;;24.60;70.40;;;;;;4930677;28;20224;-92
2022/10/28 11:15:03;;;;;;;53.70;11.77;;;24.70;69.30;;;;;;4934443;28;20208;-92
2022/10/28 11:17:32;;;;;;;82.43;14.40;;;24.80;69.00;;;;;;4930446;28;20209;-93
2022/10/28 11:20:21;;;;;;;32.97;8.43;;;24.80;69.60;;;;;;4936071;28;20226;-93
2022/10/28 11:22:56;;;;;;;13.70;5.37;;;24.90;70.40;;;;;;5017842;28;20208;-93
2022/10/28 11:25:34;;;;;;;10.60;5.07;;;25.00;69.40;;;;;;4940906;28;20236;-92
2022/10/28 11:28:32;;;;;;;11.13;4.33;;;25.10;68.20;;;;;;4934114;29;20211;-91
2022/10/28 11:31:32;;;;;;;14.20;5.37;;;25.20;68.90;;;;;;4933614;28;20243;-93
2022/10/28 11:34:30;;;;;;;8.03;4.20;;;25.30;67.90;;;;;;4927789;28;20240;-93
2022/10/28 11:37:08;;;;;;;12.97;5.03;;;25.40;67.10;;;;;;4931256;29;20722;-92
2022/10/28 11:39:49;;;;;;;9.47;4.17;;;25.40;67.60;;;;;;4934283;28;20212;-93
2022/10/28 11:42:30;;;;;;;8.67;3.83;;;25.50;67.70;;;;;;4937860;29;20212;-93
2022/10/28 11:45:09;;;;;;;10.97;4.30;;;25.60;66.80;;;;;;4933393;28;20224;-93
2022/10/28 11:48:01;;;;;;;12.40;4.90;;;25.70;66.70;;;;;;4919375;28;20215;-96
2022/10/28 11:50:45;;;;;;;12.63;4.73;;;25.80;66.00;;;;;;4926790;28;20233;-92
2022/10/28 11:53:40;;;;;;;13.47;4.57;;;25.90;66.10;;;;;;4934404;29;20243;-92
2022/10/28 11:56:17;;;;;;;11.43;4.43;;;25.90;66.10;;;;;;4923938;29;20212;-92
2022/10/28 11:58:51;;;;;;;9.43;4.07;;;26.00;65.60;;;;;;4933050;29;20715;-92
2022/10/28 12:01:44;;;;;;;13.70;4.27;;;26.10;66.10;;;;;;4935825;28;20207;-93
2022/10/28 12:04:32;;;;;;;11.63;4.27;;;26.10;65.10;;;;;;4933327;29;20212;-95
2022/10/28 12:07:25;;;;;;;13.93;6.30;;;26.20;65.80;;;;;;4932653;28;20248;-94
2022/10/28 12:10:10;;;;;;;11.30;4.07;;;26.20;64.80;;;;;;4917241;28;20303;-91
2022/10/28 12:13:00;;;;;;;12.97;4.60;;;26.30;65.10;;;;;;4921087;28;20651;-92
2022/10/28 12:15:43;;;;;;;11.63;4.97;;;26.30;64.80;;;;;;4932184;28;20250;-94
2022/10/28 12:18:23;;;;;;;13.00;5.03;;;26.40;64.80;;;;;;4934630;28;20600;-93
2022/10/28 12:21:06;;;;;;;19.63;5.93;;;26.50;64.30;;;;;;4932292;29;20204;-91
2022/10/28 12:23:41;;;;;;;11.60;4.47;;;26.50;64.30;;;;;;4934698;29;20223;-94
2022/10/28 12:26:15;;;;;;;11.83;4.67;;;26.50;63.60;;;;;;4933981;29;20206;-94
2022/10/28 12:28:46;;;;;;;11.10;4.70;;;26.60;64.30;;;;;;4934383;28;20262;-93
2022/10/28 12:31:20;;;;;;;11.87;4.00;;;26.60;63.70;;;;;;4934582;28;20252;-93
2022/10/28 12:33:51;;;;;;;15.17;5.03;;;26.50;63.40;;;;;;4918089;28;20237;-94
2022/10/28 12:36:32;;;;;;;9.30;4.03;;;26.60;63.70;;;;;;4914151;29;20235;-94
2022/10/28 12:39:06;;;;;;;13.20;5.10;;;26.50;63.30;;;;;;4920076;28;20216;-92
2022/10/28 12:41:52;;;;;;;10.37;4.23;;;26.50;63.50;;;;;;4914143;29;20263;-94
2022/10/28 12:44:22;;;;;;;8.37;3.80;;;26.50;63.70;;;;;;4923351;29;20254;-93
2022/10/28 12:47:00;;;;;;;10.33;4.60;;;26.60;64.40;;;;;;4933026;29;20216;-92
2022/10/28 12:49:47;;;;;;;13.87;4.50;;;26.50;63.70;;;;;;4935158;29;20684;-94
2022/10/28 12:52:29;;;;;;;25.77;4.80;;;26.50;63.20;;;;;;4934516;28;20212;-94
2022/10/28 12:55:01;;;;;;;10.47;4.33;;;26.60;63.10;;;;;;4933587;29;20267;-93
2022/10/28 12:57:35;;;;;;;13.10;4.87;;;26.50;63.60;;;;;;4936091;28;20212;-93
2022/10/28 13:00:08;;;;;;;9.20;4.00;;;26.50;63.00;;;;;;4928162;29;20204;-93
2022/10/28 13:02:41;;;;;;;14.67;4.90;;;26.40;63.30;;;;;;4926904;28;20207;-91
2022/10/28 13:05:19;;;;;;;11.10;4.47;;;26.40;63.20;;;;;;4931011;28;20216;-93
2022/10/28 13:08:22;;;;;;;12.27;4.20;;;26.40;63.10;;;;;;4931919;28;20289;-92
2022/10/28 13:11:32;;;;;;;17.77;6.07;;;26.30;63.60;;;;;;4918190;28;20248;-91
2022/10/28 13:14:09;;;;;;;14.80;5.53;;;26.30;63.70;;;;;;4915398;28;20235;-91
2022/10/28 13:16:51;;;;;;;13.77;4.57;;;26.30;63.90;;;;;;4925693;29;20219;-95
2022/10/28 13:19:49;;;;;;;9.30;3.53;;;26.30;64.00;;;;;;4928981;28;20204;-95
2022/10/28 13:22:35;;;;;;;12.17;4.60;;;26.40;63.70;;;;;;4930498;28;20212;-92
2022/10/28 13:25:20;;;;;;;15.50;5.33;;;26.40;63.60;;;;;;4918746;28;20212;-93